sensor_id;sensor_type;location;lat;lon;timestamp;P1;durP1;ratioP1;P2;durP2;ratioP2
22152;SDS011;11242;50.536;12.688;2024-02-26T00:01:25;28.20;;;16.42;;
22152;SDS011;11242;50.536;12.688;2024-02-26T00:03:50;26.20;;;16.10;;
22152;SDS011;11242;50.536;12.688;2024-02-26T00:06:17;27.98;;;16.65;;
22152;SDS011;11242;50.536;12.688;2024-02-26T00:08:43;31.25;;;16.13;;
22152;SDS011;11242;50.536;12.688;2024-02-26T00:11:09;29.30;;;17.67;;
22152;SDS011;11242;50.536;12.688;2024-02-26T00:13:35;30.23;;;15.88;;
22152;SDS011;11242;50.536;12.688;2024-02-26T00:16:01;28.98;;;16.15;;
22152;SDS011;11242;50.536;12.688;2024-02-26T00:18:27;29.10;;;15.38;;
22152;SDS011;11242;50.536;12.688;2024-02-26T00:20:52;29.00;;;16.20;;
22152;SDS011;11242;50.536;12.688;2024-02-26T00:23:18;28.38;;;16.17;;
22152;SDS011;11242;50.536;12.688;2024-02-26T00:25:43;29.83;;;16.67;;
22152;SDS011;11242;50.536;12.688;2024-02-26T00:28:10;27.65;;;15.60;;
22152;SDS011;11242;50.536;12.688;2024-02-26T00:30:35;28.67;;;16.38;;
22152;SDS011;11242;50.536;12.688;2024-02-26T00:33:01;27.13;;;15.10;;
22152;SDS011;11242;50.536;12.688;2024-02-26T00:35:26;26.83;;;15.25;;
22152;SDS011;11242;50.536;12.688;2024-02-26T00:37:52;26.60;;;14.95;;
22152;SDS011;11242;50.536;12.688;2024-02-26T00:40:18;26.92;;;15.07;;
22152;SDS011;11242;50.536;12.688;2024-02-26T00:42:43;22.27;;;13.80;;
22152;SDS011;11242;50.536;12.688;2024-02-26T00:45:11;28.17;;;14.63;;
22152;SDS011;11242;50.536;12.688;2024-02-26T00:47:37;27.63;;;15.15;;
22152;SDS011;11242;50.536;12.688;2024-02-26T00:50:06;25.35;;;14.48;;
22152;SDS011;11242;50.536;12.688;2024-02-26T00:52:32;29.63;;;15.63;;
22152;SDS011;11242;50.536;12.688;2024-02-26T00:54:57;28.65;;;15.35;;
22152;SDS011;11242;50.536;12.688;2024-02-26T00:57:23;27.25;;;15.73;;
22152;SDS011;11242;50.536;12.688;2024-02-26T00:59:49;26.60;;;14.88;;
22152;SDS011;11242;50.536;12.688;2024-02-26T01:02:15;25.48;;;14.00;;
22152;SDS011;11242;50.536;12.688;2024-02-26T01:04:41;27.30;;;14.82;;
22152;SDS011;11242;50.536;12.688;2024-02-26T01:07:06;26.10;;;14.38;;
22152;SDS011;11242;50.536;12.688;2024-02-26T01:09:32;28.13;;;14.95;;
22152;SDS011;11242;50.536;12.688;2024-02-26T01:11:58;26.80;;;13.85;;
22152;SDS011;11242;50.536;12.688;2024-02-26T01:14:23;25.83;;;13.88;;
22152;SDS011;11242;50.536;12.688;2024-02-26T01:16:49;26.95;;;14.32;;
22152;SDS011;11242;50.536;12.688;2024-02-26T01:19:14;29.42;;;14.60;;
22152;SDS011;11242;50.536;12.688;2024-02-26T01:21:40;25.85;;;13.40;;
22152;SDS011;11242;50.536;12.688;2024-02-26T01:24:06;25.10;;;13.77;;
22152;SDS011;11242;50.536;12.688;2024-02-26T01:26:32;23.55;;;13.18;;
22152;SDS011;11242;50.536;12.688;2024-02-26T01:28:57;28.75;;;13.45;;
22152;SDS011;11242;50.536;12.688;2024-02-26T01:31:23;23.55;;;13.02;;
22152;SDS011;11242;50.536;12.688;2024-02-26T01:33:48;23.77;;;13.38;;
22152;SDS011;11242;50.536;12.688;2024-02-26T01:36:14;25.05;;;13.45;;
22152;SDS011;11242;50.536;12.688;2024-02-26T01:38:39;22.80;;;12.60;;
22152;SDS011;11242;50.536;12.688;2024-02-26T01:41:05;29.77;;;13.50;;
22152;SDS011;11242;50.536;12.688;2024-02-26T01:43:31;22.55;;;11.68;;
22152;SDS011;11242;50.536;12.688;2024-02-26T01:45:57;22.88;;;12.85;;
22152;SDS011;11242;50.536;12.688;2024-02-26T01:48:23;19.73;;;11.73;;
22152;SDS011;11242;50.536;12.688;2024-02-26T01:50:48;25.88;;;12.27;;
22152;SDS011;11242;50.536;12.688;2024-02-26T01:53:14;21.05;;;11.75;;
22152;SDS011;11242;50.536;12.688;2024-02-26T01:55:41;21.20;;;12.00;;
22152;SDS011;11242;50.536;12.688;2024-02-26T01:58:07;22.05;;;11.20;;
22152;SDS011;11242;50.536;12.688;2024-02-26T02:00:33;20.45;;;11.15;;
22152;SDS011;11242;50.536;12.688;2024-02-26T02:03:00;22.05;;;12.13;;
22152;SDS011;11242;50.536;12.688;2024-02-26T02:05:27;20.50;;;11.63;;
22152;SDS011;11242;50.536;12.688;2024-02-26T02:07:53;20.30;;;11.35;;
22152;SDS011;11242;50.536;12.688;2024-02-26T02:10:19;22.55;;;12.07;;
22152;SDS011;11242;50.536;12.688;2024-02-26T02:12:48;19.88;;;11.00;;
22152;SDS011;11242;50.536;12.688;2024-02-26T02:15:14;21.25;;;11.25;;
22152;SDS011;11242;50.536;12.688;2024-02-26T02:17:39;20.38;;;11.48;;
22152;SDS011;11242;50.536;12.688;2024-02-26T02:20:08;20.60;;;11.57;;
22152;SDS011;11242;50.536;12.688;2024-02-26T02:22:35;20.27;;;11.20;;
22152;SDS011;11242;50.536;12.688;2024-02-26T02:25:00;19.52;;;10.90;;
22152;SDS011;11242;50.536;12.688;2024-02-26T02:27:26;19.77;;;11.63;;
22152;SDS011;11242;50.536;12.688;2024-02-26T02:29:53;20.13;;;11.70;;
22152;SDS011;11242;50.536;12.688;2024-02-26T02:32:18;20.35;;;11.20;;
22152;SDS011;11242;50.536;12.688;2024-02-26T02:34:45;20.75;;;11.43;;
22152;SDS011;11242;50.536;12.688;2024-02-26T02:37:11;20.67;;;10.70;;
22152;SDS011;11242;50.536;12.688;2024-02-26T02:39:36;19.90;;;10.35;;
22152;SDS011;11242;50.536;12.688;2024-02-26T02:42:02;21.92;;;11.15;;
22152;SDS011;11242;50.536;12.688;2024-02-26T02:44:28;22.67;;;11.30;;
22152;SDS011;11242;50.536;12.688;2024-02-26T02:46:53;21.50;;;10.73;;
22152;SDS011;11242;50.536;12.688;2024-02-26T02:49:19;19.80;;;10.77;;
22152;SDS011;11242;50.536;12.688;2024-02-26T02:51:44;21.70;;;10.50;;
22152;SDS011;11242;50.536;12.688;2024-02-26T02:54:10;16.95;;;10.27;;
22152;SDS011;11242;50.536;12.688;2024-02-26T02:56:35;22.73;;;10.95;;
22152;SDS011;11242;50.536;12.688;2024-02-26T02:59:01;19.17;;;11.00;;
22152;SDS011;11242;50.536;12.688;2024-02-26T03:01:27;20.20;;;10.68;;
22152;SDS011;11242;50.536;12.688;2024-02-26T03:03:52;20.77;;;10.63;;
22152;SDS011;11242;50.536;12.688;2024-02-26T03:06:18;18.98;;;10.40;;
22152;SDS011;11242;50.536;12.688;2024-02-26T03:08:45;21.88;;;11.18;;
22152;SDS011;11242;50.536;12.688;2024-02-26T03:11:14;19.17;;;10.65;;
22152;SDS011;11242;50.536;12.688;2024-02-26T03:13:40;17.65;;;9.88;;
22152;SDS011;11242;50.536;12.688;2024-02-26T03:16:06;19.08;;;10.05;;
22152;SDS011;11242;50.536;12.688;2024-02-26T03:18:32;17.35;;;9.30;;
22152;SDS011;11242;50.536;12.688;2024-02-26T03:20:57;18.85;;;8.93;;
22152;SDS011;11242;50.536;12.688;2024-02-26T03:23:23;22.45;;;10.85;;
22152;SDS011;11242;50.536;12.688;2024-02-26T03:25:48;17.58;;;9.75;;
22152;SDS011;11242;50.536;12.688;2024-02-26T03:28:14;19.20;;;9.32;;
22152;SDS011;11242;50.536;12.688;2024-02-26T03:30:40;15.85;;;9.10;;
22152;SDS011;11242;50.536;12.688;2024-02-26T03:33:06;19.63;;;9.35;;
22152;SDS011;11242;50.536;12.688;2024-02-26T03:35:31;16.33;;;9.00;;
22152;SDS011;11242;50.536;12.688;2024-02-26T03:37:57;16.95;;;8.88;;
22152;SDS011;11242;50.536;12.688;2024-02-26T03:40:22;17.08;;;8.63;;
22152;SDS011;11242;50.536;12.688;2024-02-26T03:42:49;16.00;;;8.90;;
22152;SDS011;11242;50.536;12.688;2024-02-26T03:45:14;19.60;;;10.23;;
22152;SDS011;11242;50.536;12.688;2024-02-26T03:47:40;19.40;;;10.40;;
22152;SDS011;11242;50.536;12.688;2024-02-26T03:50:06;20.23;;;10.80;;
22152;SDS011;11242;50.536;12.688;2024-02-26T03:52:32;19.55;;;10.68;;
22152;SDS011;11242;50.536;12.688;2024-02-26T03:54:59;22.00;;;11.10;;
22152;SDS011;11242;50.536;12.688;2024-02-26T03:57:24;19.02;;;10.77;;
22152;SDS011;11242;50.536;12.688;2024-02-26T03:59:50;20.50;;;11.43;;
22152;SDS011;11242;50.536;12.688;2024-02-26T04:02:16;19.38;;;10.18;;
22152;SDS011;11242;50.536;12.688;2024-02-26T04:04:41;17.92;;;9.93;;
22152;SDS011;11242;50.536;12.688;2024-02-26T04:07:07;17.48;;;10.38;;
22152;SDS011;11242;50.536;12.688;2024-02-26T04:09:32;20.23;;;10.88;;
22152;SDS011;11242;50.536;12.688;2024-02-26T04:11:58;19.13;;;10.25;;
22152;SDS011;11242;50.536;12.688;2024-02-26T04:14:24;16.92;;;9.63;;
22152;SDS011;11242;50.536;12.688;2024-02-26T04:16:49;16.70;;;9.75;;
22152;SDS011;11242;50.536;12.688;2024-02-26T04:19:17;22.70;;;11.48;;
22152;SDS011;11242;50.536;12.688;2024-02-26T04:21:43;19.92;;;10.88;;
22152;SDS011;11242;50.536;12.688;2024-02-26T04:24:08;19.27;;;11.02;;
22152;SDS011;11242;50.536;12.688;2024-02-26T04:26:34;22.08;;;10.75;;
22152;SDS011;11242;50.536;12.688;2024-02-26T04:28:59;21.88;;;11.13;;
22152;SDS011;11242;50.536;12.688;2024-02-26T04:31:25;20.30;;;11.10;;
22152;SDS011;11242;50.536;12.688;2024-02-26T04:33:54;20.50;;;10.57;;
22152;SDS011;11242;50.536;12.688;2024-02-26T04:36:19;20.33;;;10.45;;
22152;SDS011;11242;50.536;12.688;2024-02-26T04:38:45;20.20;;;10.23;;
22152;SDS011;11242;50.536;12.688;2024-02-26T04:41:11;17.52;;;10.48;;
22152;SDS011;11242;50.536;12.688;2024-02-26T04:43:37;17.65;;;9.82;;
22152;SDS011;11242;50.536;12.688;2024-02-26T04:46:08;19.98;;;10.60;;
22152;SDS011;11242;50.536;12.688;2024-02-26T04:48:34;18.02;;;10.35;;
22152;SDS011;11242;50.536;12.688;2024-02-26T04:51:00;19.70;;;10.25;;
22152;SDS011;11242;50.536;12.688;2024-02-26T04:53:27;20.48;;;10.13;;
22152;SDS011;11242;50.536;12.688;2024-02-26T04:55:52;19.33;;;10.30;;
22152;SDS011;11242;50.536;12.688;2024-02-26T04:58:18;19.95;;;11.02;;
22152;SDS011;11242;50.536;12.688;2024-02-26T05:00:43;19.05;;;10.75;;
22152;SDS011;11242;50.536;12.688;2024-02-26T05:03:09;16.48;;;9.82;;
22152;SDS011;11242;50.536;12.688;2024-02-26T05:05:38;17.50;;;9.88;;
22152;SDS011;11242;50.536;12.688;2024-02-26T05:08:05;20.15;;;9.65;;
22152;SDS011;11242;50.536;12.688;2024-02-26T05:10:32;18.58;;;10.05;;
22152;SDS011;11242;50.536;12.688;2024-02-26T05:12:58;20.65;;;10.75;;
22152;SDS011;11242;50.536;12.688;2024-02-26T05:15:23;18.70;;;9.57;;
22152;SDS011;11242;50.536;12.688;2024-02-26T05:17:49;15.35;;;9.00;;
22152;SDS011;11242;50.536;12.688;2024-02-26T05:20:14;19.50;;;9.65;;
22152;SDS011;11242;50.536;12.688;2024-02-26T05:22:40;15.88;;;8.63;;
22152;SDS011;11242;50.536;12.688;2024-02-26T05:25:05;16.00;;;8.57;;
22152;SDS011;11242;50.536;12.688;2024-02-26T05:27:31;20.25;;;8.45;;
22152;SDS011;11242;50.536;12.688;2024-02-26T05:29:57;17.90;;;8.18;;
22152;SDS011;11242;50.536;12.688;2024-02-26T05:32:22;17.75;;;9.52;;
22152;SDS011;11242;50.536;12.688;2024-02-26T05:34:48;13.82;;;8.43;;
22152;SDS011;11242;50.536;12.688;2024-02-26T05:37:13;15.02;;;9.13;;
22152;SDS011;11242;50.536;12.688;2024-02-26T05:39:39;13.70;;;7.60;;
22152;SDS011;11242;50.536;12.688;2024-02-26T05:42:04;16.45;;;8.48;;
22152;SDS011;11242;50.536;12.688;2024-02-26T05:44:30;13.95;;;7.13;;
22152;SDS011;11242;50.536;12.688;2024-02-26T05:46:55;16.33;;;6.60;;
22152;SDS011;11242;50.536;12.688;2024-02-26T05:49:24;13.35;;;7.05;;
22152;SDS011;11242;50.536;12.688;2024-02-26T05:51:49;15.77;;;6.50;;
22152;SDS011;11242;50.536;12.688;2024-02-26T05:54:15;20.73;;;6.97;;
22152;SDS011;11242;50.536;12.688;2024-02-26T05:56:41;14.73;;;6.60;;
22152;SDS011;11242;50.536;12.688;2024-02-26T05:59:06;15.27;;;7.88;;
22152;SDS011;11242;50.536;12.688;2024-02-26T06:01:32;39.67;;;25.70;;
22152;SDS011;11242;50.536;12.688;2024-02-26T06:03:58;27.70;;;16.02;;
22152;SDS011;11242;50.536;12.688;2024-02-26T06:06:23;28.05;;;17.98;;
22152;SDS011;11242;50.536;12.688;2024-02-26T06:08:49;28.00;;;18.17;;
22152;SDS011;11242;50.536;12.688;2024-02-26T06:11:14;26.27;;;16.17;;
22152;SDS011;11242;50.536;12.688;2024-02-26T06:13:40;23.80;;;13.43;;
22152;SDS011;11242;50.536;12.688;2024-02-26T06:16:07;40.40;;;25.73;;
22152;SDS011;11242;50.536;12.688;2024-02-26T06:18:33;19.88;;;11.20;;
22152;SDS011;11242;50.536;12.688;2024-02-26T06:20:59;20.67;;;10.07;;
22152;SDS011;11242;50.536;12.688;2024-02-26T06:23:25;16.88;;;9.90;;
22152;SDS011;11242;50.536;12.688;2024-02-26T06:25:51;27.60;;;14.20;;
22152;SDS011;11242;50.536;12.688;2024-02-26T06:28:17;45.38;;;25.60;;
22152;SDS011;11242;50.536;12.688;2024-02-26T06:30:42;36.40;;;19.98;;
22152;SDS011;11242;50.536;12.688;2024-02-26T06:33:08;32.30;;;15.70;;
22152;SDS011;11242;50.536;12.688;2024-02-26T06:35:33;32.17;;;18.63;;
22152;SDS011;11242;50.536;12.688;2024-02-26T06:37:59;38.72;;;22.92;;
22152;SDS011;11242;50.536;12.688;2024-02-26T06:40:25;41.65;;;25.83;;
22152;SDS011;11242;50.536;12.688;2024-02-26T06:42:50;38.08;;;22.52;;
22152;SDS011;11242;50.536;12.688;2024-02-26T06:45:16;37.60;;;25.30;;
22152;SDS011;11242;50.536;12.688;2024-02-26T06:47:44;45.60;;;24.30;;
22152;SDS011;11242;50.536;12.688;2024-02-26T06:50:11;41.03;;;26.35;;
22152;SDS011;11242;50.536;12.688;2024-02-26T06:52:38;49.95;;;33.95;;
22152;SDS011;11242;50.536;12.688;2024-02-26T06:55:04;86.53;;;56.03;;
22152;SDS011;11242;50.536;12.688;2024-02-26T06:57:32;49.35;;;34.13;;
22152;SDS011;11242;50.536;12.688;2024-02-26T06:59:58;47.42;;;30.45;;
22152;SDS011;11242;50.536;12.688;2024-02-26T07:02:24;54.28;;;35.80;;
22152;SDS011;11242;50.536;12.688;2024-02-26T07:04:49;41.00;;;24.95;;
22152;SDS011;11242;50.536;12.688;2024-02-26T07:07:15;92.60;;;32.40;;
22152;SDS011;11242;50.536;12.688;2024-02-26T07:09:43;48.88;;;32.72;;
22152;SDS011;11242;50.536;12.688;2024-02-26T07:12:08;48.85;;;33.28;;
22152;SDS011;11242;50.536;12.688;2024-02-26T07:14:34;35.70;;;23.55;;
22152;SDS011;11242;50.536;12.688;2024-02-26T07:17:00;42.53;;;30.75;;
22152;SDS011;11242;50.536;12.688;2024-02-26T07:19:25;50.70;;;34.35;;
22152;SDS011;11242;50.536;12.688;2024-02-26T07:21:51;50.13;;;37.05;;
22152;SDS011;11242;50.536;12.688;2024-02-26T07:24:16;51.42;;;40.15;;
22152;SDS011;11242;50.536;12.688;2024-02-26T07:26:42;30.65;;;22.15;;
22152;SDS011;11242;50.536;12.688;2024-02-26T07:29:07;23.98;;;16.45;;
22152;SDS011;11242;50.536;12.688;2024-02-26T07:31:33;28.92;;;25.05;;
22152;SDS011;11242;50.536;12.688;2024-02-26T07:33:59;17.65;;;12.48;;
22152;SDS011;11242;50.536;12.688;2024-02-26T07:36:24;27.33;;;18.20;;
22152;SDS011;11242;50.536;12.688;2024-02-26T07:38:50;20.42;;;11.90;;
22152;SDS011;11242;50.536;12.688;2024-02-26T07:41:17;30.92;;;21.38;;
22152;SDS011;11242;50.536;12.688;2024-02-26T07:43:42;15.68;;;11.85;;
22152;SDS011;11242;50.536;12.688;2024-02-26T07:46:10;17.00;;;13.02;;
22152;SDS011;11242;50.536;12.688;2024-02-26T07:48:36;34.38;;;27.08;;
22152;SDS011;11242;50.536;12.688;2024-02-26T07:51:02;13.43;;;10.10;;
22152;SDS011;11242;50.536;12.688;2024-02-26T07:53:28;21.10;;;16.27;;
22152;SDS011;11242;50.536;12.688;2024-02-26T07:55:53;14.73;;;12.10;;
22152;SDS011;11242;50.536;12.688;2024-02-26T07:58:19;17.65;;;13.27;;
22152;SDS011;11242;50.536;12.688;2024-02-26T08:00:44;25.40;;;16.40;;
22152;SDS011;11242;50.536;12.688;2024-02-26T08:03:11;38.90;;;20.73;;
22152;SDS011;11242;50.536;12.688;2024-02-26T08:05:38;36.15;;;24.40;;
22152;SDS011;11242;50.536;12.688;2024-02-26T08:08:05;43.58;;;30.75;;
22152;SDS011;11242;50.536;12.688;2024-02-26T08:10:31;55.53;;;38.13;;
22152;SDS011;11242;50.536;12.688;2024-02-26T08:12:57;56.58;;;41.40;;
22152;SDS011;11242;50.536;12.688;2024-02-26T08:18:02;53.05;;;39.20;;
22152;SDS011;11242;50.536;12.688;2024-02-26T08:20:28;42.05;;;31.48;;
22152;SDS011;11242;50.536;12.688;2024-02-26T08:22:54;45.00;;;33.67;;
22152;SDS011;11242;50.536;12.688;2024-02-26T08:25:20;50.47;;;35.60;;
22152;SDS011;11242;50.536;12.688;2024-02-26T08:27:46;42.15;;;27.75;;
22152;SDS011;11242;50.536;12.688;2024-02-26T08:30:13;41.72;;;29.33;;
22152;SDS011;11242;50.536;12.688;2024-02-26T08:32:41;32.10;;;25.98;;
22152;SDS011;11242;50.536;12.688;2024-02-26T08:35:11;29.63;;;24.00;;
22152;SDS011;11242;50.536;12.688;2024-02-26T08:37:36;39.45;;;27.83;;
22152;SDS011;11242;50.536;12.688;2024-02-26T08:40:02;48.35;;;38.38;;
22152;SDS011;11242;50.536;12.688;2024-02-26T08:42:29;29.67;;;22.90;;
22152;SDS011;11242;50.536;12.688;2024-02-26T08:44:54;32.28;;;25.77;;
22152;SDS011;11242;50.536;12.688;2024-02-26T08:47:20;34.40;;;25.75;;
22152;SDS011;11242;50.536;12.688;2024-02-26T08:49:45;24.55;;;19.08;;
22152;SDS011;11242;50.536;12.688;2024-02-26T08:52:11;18.67;;;15.80;;
22152;SDS011;11242;50.536;12.688;2024-02-26T08:54:37;20.48;;;16.40;;
22152;SDS011;11242;50.536;12.688;2024-02-26T08:57:02;17.08;;;11.95;;
22152;SDS011;11242;50.536;12.688;2024-02-26T08:59:28;11.63;;;9.45;;
22152;SDS011;11242;50.536;12.688;2024-02-26T09:01:54;13.40;;;8.10;;
22152;SDS011;11242;50.536;12.688;2024-02-26T09:04:19;9.70;;;8.25;;
22152;SDS011;11242;50.536;12.688;2024-02-26T09:06:45;8.55;;;6.75;;
22152;SDS011;11242;50.536;12.688;2024-02-26T09:09:11;9.32;;;8.32;;
22152;SDS011;11242;50.536;12.688;2024-02-26T09:11:37;9.52;;;7.80;;
22152;SDS011;11242;50.536;12.688;2024-02-26T09:14:03;10.10;;;8.18;;
22152;SDS011;11242;50.536;12.688;2024-02-26T09:16:28;10.13;;;8.23;;
22152;SDS011;11242;50.536;12.688;2024-02-26T09:18:54;11.02;;;9.60;;
22152;SDS011;11242;50.536;12.688;2024-02-26T09:21:20;16.00;;;13.25;;
22152;SDS011;11242;50.536;12.688;2024-02-26T09:23:49;9.13;;;6.95;;
22152;SDS011;11242;50.536;12.688;2024-02-26T09:26:15;35.00;;;23.90;;
22152;SDS011;11242;50.536;12.688;2024-02-26T09:28:41;10.30;;;8.15;;
22152;SDS011;11242;50.536;12.688;2024-02-26T09:31:07;9.15;;;6.68;;
22152;SDS011;11242;50.536;12.688;2024-02-26T09:33:32;10.60;;;8.45;;
22152;SDS011;11242;50.536;12.688;2024-02-26T09:35:58;10.60;;;7.60;;
22152;SDS011;11242;50.536;12.688;2024-02-26T09:38:25;6.28;;;5.30;;
22152;SDS011;11242;50.536;12.688;2024-02-26T09:40:51;6.50;;;5.55;;
22152;SDS011;11242;50.536;12.688;2024-02-26T09:43:17;8.85;;;6.15;;
22152;SDS011;11242;50.536;12.688;2024-02-26T09:45:49;7.05;;;6.05;;
22152;SDS011;11242;50.536;12.688;2024-02-26T09:48:15;6.65;;;5.10;;
22152;SDS011;11242;50.536;12.688;2024-02-26T09:50:43;7.25;;;5.50;;
22152;SDS011;11242;50.536;12.688;2024-02-26T09:53:09;7.28;;;5.18;;
22152;SDS011;11242;50.536;12.688;2024-02-26T09:55:37;10.10;;;5.63;;
22152;SDS011;11242;50.536;12.688;2024-02-26T09:58:03;8.77;;;6.60;;
22152;SDS011;11242;50.536;12.688;2024-02-26T10:00:31;8.77;;;6.60;;
22152;SDS011;11242;50.536;12.688;2024-02-26T10:03:02;5.85;;;5.18;;
22152;SDS011;11242;50.536;12.688;2024-02-26T10:05:29;6.30;;;5.43;;
22152;SDS011;11242;50.536;12.688;2024-02-26T10:07:56;8.02;;;5.78;;
22152;SDS011;11242;50.536;12.688;2024-02-26T10:10:22;7.60;;;5.93;;
22152;SDS011;11242;50.536;12.688;2024-02-26T10:12:48;6.32;;;5.47;;
22152;SDS011;11242;50.536;12.688;2024-02-26T10:15:14;11.38;;;6.13;;
22152;SDS011;11242;50.536;12.688;2024-02-26T10:17:40;7.25;;;5.75;;
22152;SDS011;11242;50.536;12.688;2024-02-26T10:20:12;7.68;;;5.97;;
22152;SDS011;11242;50.536;12.688;2024-02-26T10:22:48;8.98;;;6.65;;
22152;SDS011;11242;50.536;12.688;2024-02-26T10:25:14;8.32;;;6.00;;
22152;SDS011;11242;50.536;12.688;2024-02-26T10:27:40;6.65;;;5.57;;
22152;SDS011;11242;50.536;12.688;2024-02-26T10:32:48;7.80;;;6.43;;
22152;SDS011;11242;50.536;12.688;2024-02-26T10:35:15;8.00;;;6.00;;
22152;SDS011;11242;50.536;12.688;2024-02-26T10:37:41;7.57;;;5.88;;
22152;SDS011;11242;50.536;12.688;2024-02-26T10:40:10;9.93;;;6.88;;
22152;SDS011;11242;50.536;12.688;2024-02-26T10:42:37;6.95;;;6.05;;
22152;SDS011;11242;50.536;12.688;2024-02-26T10:45:04;9.65;;;7.00;;
22152;SDS011;11242;50.536;12.688;2024-02-26T10:47:30;6.85;;;5.95;;
22152;SDS011;11242;50.536;12.688;2024-02-26T10:49:58;6.88;;;5.85;;
22152;SDS011;11242;50.536;12.688;2024-02-26T10:52:24;9.15;;;6.47;;
22152;SDS011;11242;50.536;12.688;2024-02-26T10:54:53;8.35;;;7.05;;
22152;SDS011;11242;50.536;12.688;2024-02-26T10:57:21;7.38;;;5.80;;
22152;SDS011;11242;50.536;12.688;2024-02-26T10:59:49;8.35;;;6.40;;
22152;SDS011;11242;50.536;12.688;2024-02-26T11:02:16;9.57;;;6.57;;
22152;SDS011;11242;50.536;12.688;2024-02-26T11:04:42;9.50;;;8.00;;
22152;SDS011;11242;50.536;12.688;2024-02-26T11:07:09;7.47;;;5.93;;
22152;SDS011;11242;50.536;12.688;2024-02-26T11:09:35;10.95;;;7.50;;
22152;SDS011;11242;50.536;12.688;2024-02-26T11:12:07;8.15;;;6.50;;
22152;SDS011;11242;50.536;12.688;2024-02-26T11:14:37;7.88;;;6.50;;
22152;SDS011;11242;50.536;12.688;2024-02-26T11:17:05;9.02;;;7.05;;
22152;SDS011;11242;50.536;12.688;2024-02-26T11:19:33;7.63;;;6.20;;
22152;SDS011;11242;50.536;12.688;2024-02-26T11:22:01;8.10;;;6.60;;
22152;SDS011;11242;50.536;12.688;2024-02-26T11:24:27;8.50;;;6.25;;
22152;SDS011;11242;50.536;12.688;2024-02-26T11:26:56;11.07;;;6.20;;
22152;SDS011;11242;50.536;12.688;2024-02-26T11:29:27;9.88;;;8.38;;
22152;SDS011;11242;50.536;12.688;2024-02-26T11:32:03;8.80;;;6.93;;
22152;SDS011;11242;50.536;12.688;2024-02-26T11:34:29;8.07;;;6.72;;
22152;SDS011;11242;50.536;12.688;2024-02-26T11:36:55;12.25;;;7.65;;
22152;SDS011;11242;50.536;12.688;2024-02-26T11:39:21;9.48;;;7.35;;
22152;SDS011;11242;50.536;12.688;2024-02-26T11:41:48;6.30;;;5.63;;
22152;SDS011;11242;50.536;12.688;2024-02-26T11:44:15;8.02;;;6.00;;
22152;SDS011;11242;50.536;12.688;2024-02-26T11:46:54;9.77;;;7.85;;
22152;SDS011;11242;50.536;12.688;2024-02-26T11:51:53;7.65;;;6.30;;
22152;SDS011;11242;50.536;12.688;2024-02-26T11:59:48;6.97;;;5.90;;
22152;SDS011;11242;50.536;12.688;2024-02-26T12:05:05;8.40;;;6.75;;
22152;SDS011;11242;50.536;12.688;2024-02-26T12:07:54;7.70;;;5.75;;
22152;SDS011;11242;50.536;12.688;2024-02-26T12:10:31;6.10;;;5.50;;
22152;SDS011;11242;50.536;12.688;2024-02-26T12:13:07;8.98;;;7.03;;
22152;SDS011;11242;50.536;12.688;2024-02-26T12:15:39;12.48;;;7.32;;
22152;SDS011;11242;50.536;12.688;2024-02-26T12:18:09;7.10;;;5.75;;
22152;SDS011;11242;50.536;12.688;2024-02-26T12:20:36;4.35;;;3.95;;
22152;SDS011;11242;50.536;12.688;2024-02-26T12:23:02;8.68;;;6.18;;
22152;SDS011;11242;50.536;12.688;2024-02-26T12:25:32;9.45;;;6.47;;
22152;SDS011;11242;50.536;12.688;2024-02-26T12:27:58;7.10;;;4.97;;
22152;SDS011;11242;50.536;12.688;2024-02-26T12:30:24;7.72;;;5.70;;
22152;SDS011;11242;50.536;12.688;2024-02-26T12:32:51;10.73;;;7.05;;
22152;SDS011;11242;50.536;12.688;2024-02-26T12:35:21;9.73;;;6.97;;
22152;SDS011;11242;50.536;12.688;2024-02-26T12:37:48;6.40;;;5.35;;
22152;SDS011;11242;50.536;12.688;2024-02-26T12:40:13;14.00;;;9.68;;
22152;SDS011;11242;50.536;12.688;2024-02-26T12:42:39;11.05;;;7.88;;
22152;SDS011;11242;50.536;12.688;2024-02-26T12:45:09;8.65;;;7.40;;
22152;SDS011;11242;50.536;12.688;2024-02-26T12:47:40;7.07;;;5.68;;
22152;SDS011;11242;50.536;12.688;2024-02-26T12:50:10;6.82;;;6.18;;
22152;SDS011;11242;50.536;12.688;2024-02-26T12:52:38;7.72;;;6.25;;
22152;SDS011;11242;50.536;12.688;2024-02-26T12:55:05;8.00;;;5.65;;
22152;SDS011;11242;50.536;12.688;2024-02-26T12:57:37;10.23;;;6.63;;
22152;SDS011;11242;50.536;12.688;2024-02-26T13:00:07;5.68;;;4.95;;
22152;SDS011;11242;50.536;12.688;2024-02-26T13:02:36;8.20;;;6.88;;
22152;SDS011;11242;50.536;12.688;2024-02-26T13:05:03;7.05;;;5.90;;
22152;SDS011;11242;50.536;12.688;2024-02-26T13:07:31;7.60;;;5.32;;
22152;SDS011;11242;50.536;12.688;2024-02-26T13:09:56;8.57;;;6.10;;
22152;SDS011;11242;50.536;12.688;2024-02-26T13:12:22;7.95;;;6.10;;
22152;SDS011;11242;50.536;12.688;2024-02-26T13:14:57;9.02;;;6.32;;
22152;SDS011;11242;50.536;12.688;2024-02-26T13:17:27;8.40;;;6.80;;
22152;SDS011;11242;50.536;12.688;2024-02-26T13:19:56;9.00;;;7.10;;
22152;SDS011;11242;50.536;12.688;2024-02-26T13:22:21;9.20;;;6.90;;
22152;SDS011;11242;50.536;12.688;2024-02-26T13:24:54;11.07;;;7.13;;
22152;SDS011;11242;50.536;12.688;2024-02-26T13:27:24;10.75;;;7.30;;
22152;SDS011;11242;50.536;12.688;2024-02-26T13:30:08;10.18;;;8.20;;
22152;SDS011;11242;50.536;12.688;2024-02-26T13:32:39;23.25;;;15.13;;
22152;SDS011;11242;50.536;12.688;2024-02-26T13:37:34;11.40;;;8.32;;
22152;SDS011;11242;50.536;12.688;2024-02-26T13:40:00;9.63;;;7.90;;
22152;SDS011;11242;50.536;12.688;2024-02-26T13:42:33;9.48;;;8.32;;
22152;SDS011;11242;50.536;12.688;2024-02-26T13:44:59;9.60;;;7.70;;
22152;SDS011;11242;50.536;12.688;2024-02-26T13:47:25;10.38;;;8.45;;
22152;SDS011;11242;50.536;12.688;2024-02-26T13:49:50;10.40;;;7.15;;
22152;SDS011;11242;50.536;12.688;2024-02-26T13:52:16;9.68;;;8.07;;
22152;SDS011;11242;50.536;12.688;2024-02-26T13:54:41;10.60;;;7.43;;
22152;SDS011;11242;50.536;12.688;2024-02-26T13:57:07;9.38;;;7.88;;
22152;SDS011;11242;50.536;12.688;2024-02-26T13:59:33;10.38;;;8.23;;
22152;SDS011;11242;50.536;12.688;2024-02-26T14:01:59;10.55;;;8.40;;
22152;SDS011;11242;50.536;12.688;2024-02-26T14:04:24;10.98;;;8.18;;
22152;SDS011;11242;50.536;12.688;2024-02-26T14:06:50;10.30;;;8.25;;
22152;SDS011;11242;50.536;12.688;2024-02-26T14:09:16;13.65;;;9.75;;
22152;SDS011;11242;50.536;12.688;2024-02-26T14:11:44;13.45;;;10.13;;
22152;SDS011;11242;50.536;12.688;2024-02-26T14:14:10;10.35;;;8.48;;
22152;SDS011;11242;50.536;12.688;2024-02-26T14:16:36;12.60;;;8.63;;
22152;SDS011;11242;50.536;12.688;2024-02-26T14:19:01;19.50;;;13.30;;
22152;SDS011;11242;50.536;12.688;2024-02-26T14:21:27;17.80;;;11.93;;
22152;SDS011;11242;50.536;12.688;2024-02-26T14:23:54;14.93;;;10.23;;
22152;SDS011;11242;50.536;12.688;2024-02-26T14:26:21;11.38;;;8.50;;
22152;SDS011;11242;50.536;12.688;2024-02-26T14:28:47;11.38;;;8.38;;
22152;SDS011;11242;50.536;12.688;2024-02-26T14:31:12;13.93;;;10.95;;
22152;SDS011;11242;50.536;12.688;2024-02-26T14:33:38;8.27;;;6.95;;